sensor_id;sensor_type;location;lat;lon;timestamp;temperature;humidity
18103;DHT22;9178;51.120;6.192;2023-05-10T00:04:13;13.30;99.90
18103;DHT22;9178;51.120;6.192;2023-05-10T00:06:43;13.20;99.90
18103;DHT22;9178;51.120;6.192;2023-05-10T00:09:13;13.30;99.90
18103;DHT22;9178;51.120;6.192;2023-05-10T00:11:47;13.30;99.90
18103;DHT22;9178;51.120;6.192;2023-05-10T00:14:25;13.20;99.90
18103;DHT22;9178;51.120;6.192;2023-05-10T00:17:06;13.30;99.90
18103;DHT22;9178;51.120;6.192;2023-05-10T00:19:33;13.30;99.90
18103;DHT22;9178;51.120;6.192;2023-05-10T00:22:05;13.20;99.90
18103;DHT22;9178;51.120;6.192;2023-05-10T00:24:42;13.20;99.90
18103;DHT22;9178;51.120;6.192;2023-05-10T00:27:24;13.20;99.90
18103;DHT22;9178;51.120;6.192;2023-05-10T00:29:52;13.20;99.90
18103;DHT22;9178;51.120;6.192;2023-05-10T00:32:25;13.10;99.90
18103;DHT22;9178;51.120;6.192;2023-05-10T00:34:56;13.10;99.90
18103;DHT22;9178;51.120;6.192;2023-05-10T00:37:23;13.10;99.90
18103;DHT22;9178;51.120;6.192;2023-05-10T00:39:56;13.10;99.90
18103;DHT22;9178;51.120;6.192;2023-05-10T00:42:25;13.10;99.90
18103;DHT22;9178;51.120;6.192;2023-05-10T00:44:53;13.10;99.90
18103;DHT22;9178;51.120;6.192;2023-05-10T00:47:24;13.00;99.90
18103;DHT22;9178;51.120;6.192;2023-05-10T00:49:54;13.10;99.90
18103;DHT22;9178;51.120;6.192;2023-05-10T00:52:22;13.10;99.90
18103;DHT22;9178;51.120;6.192;2023-05-10T00:54:52;13.00;99.90
18103;DHT22;9178;51.120;6.192;2023-05-10T00:57:19;13.10;99.90
18103;DHT22;9178;51.120;6.192;2023-05-10T00:59:52;13.10;99.90
18103;DHT22;9178;51.120;6.192;2023-05-10T01:02:19;13.10;99.90
18103;DHT22;9178;51.120;6.192;2023-05-10T01:04:49;13.10;99.90
18103;DHT22;9178;51.120;6.192;2023-05-10T01:07:17;13.10;99.90
18103;DHT22;9178;51.120;6.192;2023-05-10T01:09:44;13.10;99.90
18103;DHT22;9178;51.120;6.192;2023-05-10T01:12:11;13.00;99.90
18103;DHT22;9178;51.120;6.192;2023-05-10T01:14:41;13.10;99.90
18103;DHT22;9178;51.120;6.192;2023-05-10T01:17:10;13.10;99.90
18103;DHT22;9178;51.120;6.192;2023-05-10T01:19:38;13.10;99.90
18103;DHT22;9178;51.120;6.192;2023-05-10T01:22:16;13.10;99.90
18103;DHT22;9178;51.120;6.192;2023-05-10T01:28:08;13.10;99.90
18103;DHT22;9178;51.120;6.192;2023-05-10T01:31:06;13.00;99.90
18103;DHT22;9178;51.120;6.192;2023-05-10T01:33:47;13.10;99.90
18103;DHT22;9178;51.120;6.192;2023-05-10T01:36:21;13.10;99.90
18103;DHT22;9178;51.120;6.192;2023-05-10T01:39:01;13.00;99.90
18103;DHT22;9178;51.120;6.192;2023-05-10T01:41:48;13.10;99.90
18103;DHT22;9178;51.120;6.192;2023-05-10T01:44:38;13.00;99.90
18103;DHT22;9178;51.120;6.192;2023-05-10T01:47:11;13.00;99.90
18103;DHT22;9178;51.120;6.192;2023-05-10T01:49:43;13.10;99.90
18103;DHT22;9178;51.120;6.192;2023-05-10T01:52:16;13.00;99.90
18103;DHT22;9178;51.120;6.192;2023-05-10T01:54:50;13.00;99.90
18103;DHT22;9178;51.120;6.192;2023-05-10T01:57:20;13.10;99.90
18103;DHT22;9178;51.120;6.192;2023-05-10T01:59:50;13.00;99.90
18103;DHT22;9178;51.120;6.192;2023-05-10T02:02:19;13.00;99.90
18103;DHT22;9178;51.120;6.192;2023-05-10T02:04:49;13.00;99.90
18103;DHT22;9178;51.120;6.192;2023-05-10T02:07:17;13.00;99.90
18103;DHT22;9178;51.120;6.192;2023-05-10T02:09:47;13.00;99.90
18103;DHT22;9178;51.120;6.192;2023-05-10T02:12:15;13.00;99.90
18103;DHT22;9178;51.120;6.192;2023-05-10T02:14:43;13.00;99.90
18103;DHT22;9178;51.120;6.192;2023-05-10T02:17:11;13.00;99.90
18103;DHT22;9178;51.120;6.192;2023-05-10T02:19:40;13.00;99.90
18103;DHT22;9178;51.120;6.192;2023-05-10T02:22:10;13.00;99.90
18103;DHT22;9178;51.120;6.192;2023-05-10T02:24:38;13.00;99.90
18103;DHT22;9178;51.120;6.192;2023-05-10T02:27:06;13.00;99.90
18103;DHT22;9178;51.120;6.192;2023-05-10T02:29:33;13.10;99.90
18103;DHT22;9178;51.120;6.192;2023-05-10T02:32:01;13.00;99.90
18103;DHT22;9178;51.120;6.192;2023-05-10T02:34:30;13.10;99.90
18103;DHT22;9178;51.120;6.192;2023-05-10T02:37:01;13.10;99.90
18103;DHT22;9178;51.120;6.192;2023-05-10T02:39:31;13.10;99.90
18103;DHT22;9178;51.120;6.192;2023-05-10T02:42:00;13.10;99.90
18103;DHT22;9178;51.120;6.192;2023-05-10T02:44:34;13.10;99.90
18103;DHT22;9178;51.120;6.192;2023-05-10T02:47:03;13.10;99.90
18103;DHT22;9178;51.120;6.192;2023-05-10T02:49:33;13.10;99.90
18103;DHT22;9178;51.120;6.192;2023-05-10T02:52:01;13.10;99.90
18103;DHT22;9178;51.120;6.192;2023-05-10T02:54:38;13.10;99.90
18103;DHT22;9178;51.120;6.192;2023-05-10T02:57:07;13.10;99.90
18103;DHT22;9178;51.120;6.192;2023-05-10T02:59:38;13.10;99.90
18103;DHT22;9178;51.120;6.192;2023-05-10T03:02:06;13.10;99.90
18103;DHT22;9178;51.120;6.192;2023-05-10T03:04:34;13.10;99.90
18103;DHT22;9178;51.120;6.192;2023-05-10T03:07:01;13.10;99.90
18103;DHT22;9178;51.120;6.192;2023-05-10T03:09:29;13.10;99.90
18103;DHT22;9178;51.120;6.192;2023-05-10T03:12:04;13.10;99.90
18103;DHT22;9178;51.120;6.192;2023-05-10T03:14:45;13.10;99.90
18103;DHT22;9178;51.120;6.192;2023-05-10T03:17:30;13.10;99.90
18103;DHT22;9178;51.120;6.192;2023-05-10T03:19:58;13.10;99.90
18103;DHT22;9178;51.120;6.192;2023-05-10T03:22:37;13.10;99.90
18103;DHT22;9178;51.120;6.192;2023-05-10T03:25:06;13.10;99.90
18103;DHT22;9178;51.120;6.192;2023-05-10T03:27:40;13.10;99.90
18103;DHT22;9178;51.120;6.192;2023-05-10T03:30:12;13.10;99.90
18103;DHT22;9178;51.120;6.192;2023-05-10T03:32:39;13.00;99.90
18103;DHT22;9178;51.120;6.192;2023-05-10T03:35:07;13.00;99.90
18103;DHT22;9178;51.120;6.192;2023-05-10T03:37:35;13.00;99.90
18103;DHT22;9178;51.120;6.192;2023-05-10T03:40:02;13.00;99.90
18103;DHT22;9178;51.120;6.192;2023-05-10T03:42:29;13.00;99.90
18103;DHT22;9178;51.120;6.192;2023-05-10T03:44:58;13.00;99.90
18103;DHT22;9178;51.120;6.192;2023-05-10T03:47:28;12.90;99.90
18103;DHT22;9178;51.120;6.192;2023-05-10T03:49:55;13.00;99.90
18103;DHT22;9178;51.120;6.192;2023-05-10T03:52:22;13.00;99.90
18103;DHT22;9178;51.120;6.192;2023-05-10T03:54:49;12.90;99.90
18103;DHT22;9178;51.120;6.192;2023-05-10T03:57:15;12.90;99.90
18103;DHT22;9178;51.120;6.192;2023-05-10T03:59:42;12.90;99.90
18103;DHT22;9178;51.120;6.192;2023-05-10T04:02:10;12.90;99.90
18103;DHT22;9178;51.120;6.192;2023-05-10T04:04:37;12.90;99.90
18103;DHT22;9178;51.120;6.192;2023-05-10T04:07:04;12.80;99.90
18103;DHT22;9178;51.120;6.192;2023-05-10T04:09:31;12.80;99.90
18103;DHT22;9178;51.120;6.192;2023-05-10T04:11:58;12.80;99.90
18103;DHT22;9178;51.120;6.192;2023-05-10T04:14:32;12.80;99.90
18103;DHT22;9178;51.120;6.192;2023-05-10T04:17:00;12.80;99.90
18103;DHT22;9178;51.120;6.192;2023-05-10T04:19:33;12.70;99.90
18103;DHT22;9178;51.120;6.192;2023-05-10T04:22:00;12.80;99.90
18103;DHT22;9178;51.120;6.192;2023-05-10T04:24:28;12.70;99.90
18103;DHT22;9178;51.120;6.192;2023-05-10T04:26:55;12.70;99.90
18103;DHT22;9178;51.120;6.192;2023-05-10T04:29:22;12.70;99.90
18103;DHT22;9178;51.120;6.192;2023-05-10T04:31:54;12.70;99.90
18103;DHT22;9178;51.120;6.192;2023-05-10T04:34:22;12.70;99.90
18103;DHT22;9178;51.120;6.192;2023-05-10T04:36:50;12.70;99.90
18103;DHT22;9178;51.120;6.192;2023-05-10T04:39:17;12.70;99.90
18103;DHT22;9178;51.120;6.192;2023-05-10T04:41:44;12.70;99.90
18103;DHT22;9178;51.120;6.192;2023-05-10T04:44:11;12.70;99.90
18103;DHT22;9178;51.120;6.192;2023-05-10T04:46:38;12.80;99.90
18103;DHT22;9178;51.120;6.192;2023-05-10T04:49:04;12.80;99.90
18103;DHT22;9178;51.120;6.192;2023-05-10T04:51:32;12.70;99.90
18103;DHT22;9178;51.120;6.192;2023-05-10T04:54:00;12.70;99.90
18103;DHT22;9178;51.120;6.192;2023-05-10T04:56:27;12.70;99.90
18103;DHT22;9178;51.120;6.192;2023-05-10T04:58:57;12.70;99.90
18103;DHT22;9178;51.120;6.192;2023-05-10T05:01:24;12.70;99.90
18103;DHT22;9178;51.120;6.192;2023-05-10T05:03:51;12.60;99.90
18103;DHT22;9178;51.120;6.192;2023-05-10T05:06:18;12.70;99.90
18103;DHT22;9178;51.120;6.192;2023-05-10T05:08:47;12.60;99.90
18103;DHT22;9178;51.120;6.192;2023-05-10T05:11:16;12.60;99.90
18103;DHT22;9178;51.120;6.192;2023-05-10T05:13:43;12.60;99.90
18103;DHT22;9178;51.120;6.192;2023-05-10T05:16:13;12.60;99.90
18103;DHT22;9178;51.120;6.192;2023-05-10T05:18:40;12.60;99.90
18103;DHT22;9178;51.120;6.192;2023-05-10T05:21:14;12.60;99.90
18103;DHT22;9178;51.120;6.192;2023-05-10T05:23:41;12.70;99.90
18103;DHT22;9178;51.120;6.192;2023-05-10T05:26:08;12.60;99.90
18103;DHT22;9178;51.120;6.192;2023-05-10T05:28:40;12.60;99.90
18103;DHT22;9178;51.120;6.192;2023-05-10T05:31:07;12.70;99.90
18103;DHT22;9178;51.120;6.192;2023-05-10T05:33:37;12.70;99.90
18103;DHT22;9178;51.120;6.192;2023-05-10T05:36:05;12.70;99.90
18103;DHT22;9178;51.120;6.192;2023-05-10T05:38:32;12.70;99.90
18103;DHT22;9178;51.120;6.192;2023-05-10T05:41:00;12.70;99.90
18103;DHT22;9178;51.120;6.192;2023-05-10T05:43:27;12.80;99.90
18103;DHT22;9178;51.120;6.192;2023-05-10T05:45:55;12.80;99.90
18103;DHT22;9178;51.120;6.192;2023-05-10T05:48:23;12.80;99.90
18103;DHT22;9178;51.120;6.192;2023-05-10T05:50:54;12.80;99.90
18103;DHT22;9178;51.120;6.192;2023-05-10T05:53:21;12.80;99.90
18103;DHT22;9178;51.120;6.192;2023-05-10T05:55:55;12.80;99.90
18103;DHT22;9178;51.120;6.192;2023-05-10T05:58:23;12.80;99.90
18103;DHT22;9178;51.120;6.192;2023-05-10T06:00:51;12.80;99.90
18103;DHT22;9178;51.120;6.192;2023-05-10T06:03:20;12.80;99.90
18103;DHT22;9178;51.120;6.192;2023-05-10T06:05:47;12.80;99.90
18103;DHT22;9178;51.120;6.192;2023-05-10T06:08:14;12.90;99.90
18103;DHT22;9178;51.120;6.192;2023-05-10T06:10:41;12.80;99.90
18103;DHT22;9178;51.120;6.192;2023-05-10T06:13:16;12.80;99.90
18103;DHT22;9178;51.120;6.192;2023-05-10T06:15:43;12.80;99.90
18103;DHT22;9178;51.120;6.192;2023-05-10T06:18:10;12.80;99.90
18103;DHT22;9178;51.120;6.192;2023-05-10T06:20:41;12.80;99.90
18103;DHT22;9178;51.120;6.192;2023-05-10T06:23:08;12.90;99.90
18103;DHT22;9178;51.120;6.192;2023-05-10T06:25:37;12.80;99.90
18103;DHT22;9178;51.120;6.192;2023-05-10T06:28:10;12.90;99.90
18103;DHT22;9178;51.120;6.192;2023-05-10T06:30:37;12.90;99.90
18103;DHT22;9178;51.120;6.192;2023-05-10T06:33:04;13.00;99.90
18103;DHT22;9178;51.120;6.192;2023-05-10T06:35:31;13.00;99.90
18103;DHT22;9178;51.120;6.192;2023-05-10T06:38:00;13.00;99.90
18103;DHT22;9178;51.120;6.192;2023-05-10T06:40:27;13.00;99.90
18103;DHT22;9178;51.120;6.192;2023-05-10T06:42:54;13.00;99.90
18103;DHT22;9178;51.120;6.192;2023-05-10T06:45:21;13.00;99.90
18103;DHT22;9178;51.120;6.192;2023-05-10T06:47:48;13.00;99.90
18103;DHT22;9178;51.120;6.192;2023-05-10T06:50:15;13.00;99.90
18103;DHT22;9178;51.120;6.192;2023-05-10T06:52:42;13.00;99.90
18103;DHT22;9178;51.120;6.192;2023-05-10T06:55:13;13.10;99.90
18103;DHT22;9178;51.120;6.192;2023-05-10T06:57:40;13.10;99.90
18103;DHT22;9178;51.120;6.192;2023-05-10T07:00:10;13.20;99.90
18103;DHT22;9178;51.120;6.192;2023-05-10T07:02:37;13.30;99.90
18103;DHT22;9178;51.120;6.192;2023-05-10T07:05:05;13.40;99.90
18103;DHT22;9178;51.120;6.192;2023-05-10T07:07:32;13.50;99.90
18103;DHT22;9178;51.120;6.192;2023-05-10T07:09:59;13.60;99.90
18103;DHT22;9178;51.120;6.192;2023-05-10T07:12:27;13.90;99.90
18103;DHT22;9178;51.120;6.192;2023-05-10T07:14:54;14.10;99.90
18103;DHT22;9178;51.120;6.192;2023-05-10T07:17:21;14.20;99.90
18103;DHT22;9178;51.120;6.192;2023-05-10T07:19:51;14.20;99.90
18103;DHT22;9178;51.120;6.192;2023-05-10T07:22:20;14.30;99.90
18103;DHT22;9178;51.120;6.192;2023-05-10T07:24:47;14.20;99.90
18103;DHT22;9178;51.120;6.192;2023-05-10T07:27:14;14.20;99.90
18103;DHT22;9178;51.120;6.192;2023-05-10T07:29:52;14.20;99.90
18103;DHT22;9178;51.120;6.192;2023-05-10T07:32:20;14.30;99.90
18103;DHT22;9178;51.120;6.192;2023-05-10T07:34:47;14.30;99.90
18103;DHT22;9178;51.120;6.192;2023-05-10T07:37:20;14.40;99.90
18103;DHT22;9178;51.120;6.192;2023-05-10T07:39:52;14.30;99.90
18103;DHT22;9178;51.120;6.192;2023-05-10T07:42:19;14.30;99.90
18103;DHT22;9178;51.120;6.192;2023-05-10T07:44:50;14.30;99.90
18103;DHT22;9178;51.120;6.192;2023-05-10T07:47:17;14.30;99.90
18103;DHT22;9178;51.120;6.192;2023-05-10T07:49:45;14.20;99.90
18103;DHT22;9178;51.120;6.192;2023-05-10T07:52:12;14.10;99.90
18103;DHT22;9178;51.120;6.192;2023-05-10T07:54:39;14.10;99.90
18103;DHT22;9178;51.120;6.192;2023-05-10T07:57:06;14.10;99.90
18103;DHT22;9178;51.120;6.192;2023-05-10T07:59:33;14.00;99.90
18103;DHT22;9178;51.120;6.192;2023-05-10T08:02:01;13.90;99.90
18103;DHT22;9178;51.120;6.192;2023-05-10T08:04:28;14.00;99.90
18103;DHT22;9178;51.120;6.192;2023-05-10T08:06:55;14.00;99.90
18103;DHT22;9178;51.120;6.192;2023-05-10T08:09:22;14.00;99.90
18103;DHT22;9178;51.120;6.192;2023-05-10T08:11:52;14.00;99.90
18103;DHT22;9178;51.120;6.192;2023-05-10T08:14:19;14.00;99.90
18103;DHT22;9178;51.120;6.192;2023-05-10T08:16:47;14.00;99.90
18103;DHT22;9178;51.120;6.192;2023-05-10T08:19:18;13.90;99.90
18103;DHT22;9178;51.120;6.192;2023-05-10T08:21:47;13.90;99.90
18103;DHT22;9178;51.120;6.192;2023-05-10T08:24:14;13.90;99.90
18103;DHT22;9178;51.120;6.192;2023-05-10T08:26:41;13.90;99.90
18103;DHT22;9178;51.120;6.192;2023-05-10T08:29:11;13.90;99.90
18103;DHT22;9178;51.120;6.192;2023-05-10T08:31:39;13.90;99.90
18103;DHT22;9178;51.120;6.192;2023-05-10T08:34:06;13.90;99.90
18103;DHT22;9178;51.120;6.192;2023-05-10T08:36:34;13.80;99.90
18103;DHT22;9178;51.120;6.192;2023-05-10T08:39:01;13.90;99.90
18103;DHT22;9178;51.120;6.192;2023-05-10T08:41:30;13.90;99.90
18103;DHT22;9178;51.120;6.192;2023-05-10T08:44:01;13.90;99.90
18103;DHT22;9178;51.120;6.192;2023-05-10T08:46:31;13.90;99.90
18103;DHT22;9178;51.120;6.192;2023-05-10T08:49:04;13.90;99.90
18103;DHT22;9178;51.120;6.192;2023-05-10T08:51:36;14.00;99.90
18103;DHT22;9178;51.120;6.192;2023-05-10T08:54:07;14.00;99.90
18103;DHT22;9178;51.120;6.192;2023-05-10T08:56:34;14.00;99.90
18103;DHT22;9178;51.120;6.192;2023-05-10T08:59:15;14.10;99.90
18103;DHT22;9178;51.120;6.192;2023-05-10T09:01:43;14.20;99.90
18103;DHT22;9178;51.120;6.192;2023-05-10T09:04:11;14.30;99.90
18103;DHT22;9178;51.120;6.192;2023-05-10T09:06:40;14.40;99.90
18103;DHT22;9178;51.120;6.192;2023-05-10T09:09:07;14.40;99.90
18103;DHT22;9178;51.120;6.192;2023-05-10T09:11:34;14.40;99.90
18103;DHT22;9178;51.120;6.192;2023-05-10T09:14:01;14.40;99.90
18103;DHT22;9178;51.120;6.192;2023-05-10T09:16:29;14.40;99.90
18103;DHT22;9178;51.120;6.192;2023-05-10T09:18:58;14.30;99.90
18103;DHT22;9178;51.120;6.192;2023-05-10T09:21:28;14.30;99.90
18103;DHT22;9178;51.120;6.192;2023-05-10T09:24:07;14.40;99.90
18103;DHT22;9178;51.120;6.192;2023-05-10T09:26:46;14.30;99.90
18103;DHT22;9178;51.120;6.192;2023-05-10T09:29:14;14.40;99.90
18103;DHT22;9178;51.120;6.192;2023-05-10T09:31:46;14.40;99.90
18103;DHT22;9178;51.120;6.192;2023-05-10T09:34:17;14.50;99.90
18103;DHT22;9178;51.120;6.192;2023-05-10T09:36:54;14.50;99.90
18103;DHT22;9178;51.120;6.192;2023-05-10T09:39:33;14.60;99.90
18103;DHT22;9178;51.120;6.192;2023-05-10T09:42:02;14.50;99.90
18103;DHT22;9178;51.120;6.192;2023-05-10T09:44:34;14.60;99.90
18103;DHT22;9178;51.120;6.192;2023-05-10T09:47:02;14.70;99.90
18103;DHT22;9178;51.120;6.192;2023-05-10T09:49:30;15.00;99.90
18103;DHT22;9178;51.120;6.192;2023-05-10T09:52:02;15.30;99.90
18103;DHT22;9178;51.120;6.192;2023-05-10T09:54:32;15.60;99.90
18103;DHT22;9178;51.120;6.192;2023-05-10T09:56:59;15.80;99.90
18103;DHT22;9178;51.120;6.192;2023-05-10T09:59:32;16.00;99.90
18103;DHT22;9178;51.120;6.192;2023-05-10T10:02:04;16.00;99.90
18103;DHT22;9178;51.120;6.192;2023-05-10T10:04:31;16.00;99.90
18103;DHT22;9178;51.120;6.192;2023-05-10T10:07:00;16.00;99.90
18103;DHT22;9178;51.120;6.192;2023-05-10T10:09:33;16.10;99.90
18103;DHT22;9178;51.120;6.192;2023-05-10T10:12:00;16.20;99.90
18103;DHT22;9178;51.120;6.192;2023-05-10T10:14:30;16.40;99.90
18103;DHT22;9178;51.120;6.192;2023-05-10T10:17:02;16.60;99.90
18103;DHT22;9178;51.120;6.192;2023-05-10T10:19:33;16.60;99.90
18103;DHT22;9178;51.120;6.192;2023-05-10T10:22:01;16.70;99.90
18103;DHT22;9178;51.120;6.192;2023-05-10T10:24:34;16.80;99.90
18103;DHT22;9178;51.120;6.192;2023-05-10T10:27:08;16.80;99.90
18103;DHT22;9178;51.120;6.192;2023-05-10T10:29:59;16.80;99.90
18103;DHT22;9178;51.120;6.192;2023-05-10T10:33:01;16.60;99.90
18103;DHT22;9178;51.120;6.192;2023-05-10T10:35:41;16.40;99.90
18103;DHT22;9178;51.120;6.192;2023-05-10T10:38:09;16.30;99.90
18103;DHT22;9178;51.120;6.192;2023-05-10T10:40:40;16.40;99.90
18103;DHT22;9178;51.120;6.192;2023-05-10T10:43:23;16.40;99.90
18103;DHT22;9178;51.120;6.192;2023-05-10T10:46:20;16.50;99.90
18103;DHT22;9178;51.120;6.192;2023-05-10T10:48:51;16.50;99.90
18103;DHT22;9178;51.120;6.192;2023-05-10T10:51:37;16.60;99.90
18103;DHT22;9178;51.120;6.192;2023-05-10T10:54:10;16.70;99.90
18103;DHT22;9178;51.120;6.192;2023-05-10T10:56:44;16.60;99.90
18103;DHT22;9178;51.120;6.192;2023-05-10T10:59:16;16.50;99.90
18103;DHT22;9178;51.120;6.192;2023-05-10T11:02:11;16.40;99.90
18103;DHT22;9178;51.120;6.192;2023-05-10T11:04:50;16.40;99.90
18103;DHT22;9178;51.120;6.192;2023-05-10T11:07:17;16.40;99.90
18103;DHT22;9178;51.120;6.192;2023-05-10T11:09:44;16.40;99.90
18103;DHT22;9178;51.120;6.192;2023-05-10T11:12:14;16.40;99.90
18103;DHT22;9178;51.120;6.192;2023-05-10T11:17:29;16.30;99.90
18103;DHT22;9178;51.120;6.192;2023-05-10T11:20:18;16.30;99.90
18103;DHT22;9178;51.120;6.192;2023-05-10T11:22:52;16.20;99.90
18103;DHT22;9178;51.120;6.192;2023-05-10T11:25:26;16.20;99.90
18103;DHT22;9178;51.120;6.192;2023-05-10T11:27:55;16.20;99.90
18103;DHT22;9178;51.120;6.192;2023-05-10T11:30:23;16.30;99.90
18103;DHT22;9178;51.120;6.192;2023-05-10T11:32:52;16.30;99.90
18103;DHT22;9178;51.120;6.192;2023-05-10T11:35:27;16.40;99.90
18103;DHT22;9178;51.120;6.192;2023-05-10T11:37:54;16.50;99.90
18103;DHT22;9178;51.120;6.192;2023-05-10T11:40:21;16.60;99.90
18103;DHT22;9178;51.120;6.192;2023-05-10T11:42:50;16.60;99.90
18103;DHT22;9178;51.120;6.192;2023-05-10T11:45:18;16.50;99.90
18103;DHT22;9178;51.120;6.192;2023-05-10T11:47:49;16.50;99.90
18103;DHT22;9178;51.120;6.192;2023-05-10T11:50:17;16.60;99.90
18103;DHT22;9178;51.120;6.192;2023-05-10T11:52:45;16.60;99.90
18103;DHT22;9178;51.120;6.192;2023-05-10T11:55:14;16.80;99.90
18103;DHT22;9178;51.120;6.192;2023-05-10T11:57:42;16.90;99.90
18103;DHT22;9178;51.120;6.192;2023-05-10T12:00:12;17.00;99.90
18103;DHT22;9178;51.120;6.192;2023-05-10T12:02:41;17.10;99.90
18103;DHT22;9178;51.120;6.192;2023-05-10T12:05:09;17.00;99.90
18103;DHT22;9178;51.120;6.192;2023-05-10T12:07:38;16.90;99.90
18103;DHT22;9178;51.120;6.192;2023-05-10T12:10:12;16.80;99.90
18103;DHT22;9178;51.120;6.192;2023-05-10T12:12:41;16.70;99.90
18103;DHT22;9178;51.120;6.192;2023-05-10T12:15:12;16.70;99.90
18103;DHT22;9178;51.120;6.192;2023-05-10T12:17:54;16.70;99.90
18103;DHT22;9178;51.120;6.192;2023-05-10T12:20:33;16.60;99.90
18103;DHT22;9178;51.120;6.192;2023-05-10T12:23:00;16.50;99.90
18103;DHT22;9178;51.120;6.192;2023-05-10T12:25:31;16.60;99.90
18103;DHT22;9178;51.120;6.192;2023-05-10T12:27:59;16.50;99.90
18103;DHT22;9178;51.120;6.192;2023-05-10T12:30:28;16.40;99.90
18103;DHT22;9178;51.120;6.192;2023-05-10T12:33:07;16.30;99.90
18103;DHT22;9178;51.120;6.192;2023-05-10T12:35:44;16.20;99.90
18103;DHT22;9178;51.120;6.192;2023-05-10T12:38:28;16.30;99.90
18103;DHT22;9178;51.120;6.192;2023-05-10T12:40:57;16.50;99.90
18103;DHT22;9178;51.120;6.192;2023-05-10T12:43:27;16.60;99.90
18103;DHT22;9178;51.120;6.192;2023-05-10T12:45:55;16.70;99.90
18103;DHT22;9178;51.120;6.192;2023-05-10T12:48:23;16.80;99.90
18103;DHT22;9178;51.120;6.192;2023-05-10T12:50:50;17.00;99.90
18103;DHT22;9178;51.120;6.192;2023-05-10T12:53:18;17.10;99.90
18103;DHT22;9178;51.120;6.192;2023-05-10T12:55:45;17.20;99.90
18103;DHT22;9178;51.120;6.192;2023-05-10T12:58:12;17.30;99.90
18103;DHT22;9178;51.120;6.192;2023-05-10T13:00:39;17.30;99.90
18103;DHT22;9178;51.120;6.192;2023-05-10T13:03:06;17.40;99.90
18103;DHT22;9178;51.120;6.192;2023-05-10T13:05:35;17.50;99.90
18103;DHT22;9178;51.120;6.192;2023-05-10T13:08:02;17.60;99.90
18103;DHT22;9178;51.120;6.192;2023-05-10T13:10:29;17.50;99.90
18103;DHT22;9178;51.120;6.192;2023-05-10T13:12:57;17.50;99.90
18103;DHT22;9178;51.120;6.192;2023-05-10T13:15:25;17.40;99.90
18103;DHT22;9178;51.120;6.192;2023-05-10T13:17:53;17.30;99.90
18103;DHT22;9178;51.120;6.192;2023-05-10T13:20:20;17.40;99.90
18103;DHT22;9178;51.120;6.192;2023-05-10T13:22:49;17.40;99.90
18103;DHT22;9178;51.120;6.192;2023-05-10T13:25:17;17.40;99.90
18103;DHT22;9178;51.120;6.192;2023-05-10T13:27:43;17.30;99.90
18103;DHT22;9178;51.120;6.192;2023-05-10T13:30:13;17.50;99.90
18103;DHT22;9178;51.120;6.192;2023-05-10T13:32:40;17.40;99.90
18103;DHT22;9178;51.120;6.192;2023-05-10T13:35:08;17.40;99.90
18103;DHT22;9178;51.120;6.192;2023-05-10T13:37:35;17.50;99.90
18103;DHT22;9178;51.120;6.192;2023-05-10T13:40:06;17.50;99.90
18103;DHT22;9178;51.120;6.192;2023-05-10T13:42:33;17.50;99.90
18103;DHT22;9178;51.120;6.192;2023-05-10T13:45:17;17.50;99.90
18103;DHT22;9178;51.120;6.192;2023-05-10T13:47:44;17.50;99.90
18103;DHT22;9178;51.120;6.192;2023-05-10T13:50:12;17.50;99.90
18103;DHT22;9178;51.120;6.192;2023-05-10T13:52:39;17.50;99.90
18103;DHT22;9178;51.120;6.192;2023-05-10T13:55:10;17.50;99.90
18103;DHT22;9178;51.120;6.192;2023-05-10T13:57:38;17.60;99.90
18103;DHT22;9178;51.120;6.192;2023-05-10T14:00:15;17.80;99.90
18103;DHT22;9178;51.120;6.192;2023-05-10T14:02:42;18.00;99.90
18103;DHT22;9178;51.120;6.192;2023-05-10T14:05:15;18.20;99.90
18103;DHT22;9178;51.120;6.192;2023-05-10T14:07:47;18.20;99.90
18103;DHT22;9178;51.120;6.192;2023-05-10T14:10:15;18.30;99.90
18103;DHT22;9178;51.120;6.192;2023-05-10T14:12:42;18.40;99.90
18103;DHT22;9178;51.120;6.192;2023-05-10T14:15:11;18.40;99.90
18103;DHT22;9178;51.120;6.192;2023-05-10T14:17:38;18.70;99.90
18103;DHT22;9178;51.120;6.192;2023-05-10T14:20:07;18.90;99.90
18103;DHT22;9178;51.120;6.192;2023-05-10T14:22:34;19.20;99.90
18103;DHT22;9178;51.120;6.192;2023-05-10T14:25:01;19.30;99.90
18103;DHT22;9178;51.120;6.192;2023-05-10T14:27:29;19.30;99.90
18103;DHT22;9178;51.120;6.192;2023-05-10T14:29:56;19.20;99.90
18103;DHT22;9178;51.120;6.192;2023-05-10T14:32:23;19.10;99.90
18103;DHT22;9178;51.120;6.192;2023-05-10T14:34:52;19.00;99.90
18103;DHT22;9178;51.120;6.192;2023-05-10T14:37:19;19.00;99.90
18103;DHT22;9178;51.120;6.192;2023-05-10T14:39:46;19.00;99.90
18103;DHT22;9178;51.120;6.192;2023-05-10T14:42:13;19.00;99.90
18103;DHT22;9178;51.120;6.192;2023-05-10T14:44:44;19.00;99.90
18103;DHT22;9178;51.120;6.192;2023-05-10T14:47:11;19.10;99.90
18103;DHT22;9178;51.120;6.192;2023-05-10T14:49:38;19.20;99.90
18103;DHT22;9178;51.120;6.192;2023-05-10T14:52:06;19.20;99.90
18103;DHT22;9178;51.120;6.192;2023-05-10T14:54:33;19.20;99.90
18103;DHT22;9178;51.120;6.192;2023-05-10T14:57:00;19.10;99.90
18103;DHT22;9178;51.120;6.192;2023-05-10T14:59:27;19.00;99.90
18103;DHT22;9178;51.120;6.192;2023-05-10T15:01:56;19.20;99.90
18103;DHT22;9178;51.120;6.192;2023-05-10T15:04:23;19.10;99.90
18103;DHT22;9178;51.120;6.192;2023-05-10T15:06:53;19.20;99.90
18103;DHT22;9178;51.120;6.192;2023-05-10T15:09:24;19.20;99.90
18103;DHT22;9178;51.120;6.192;2023-05-10T15:11:53;19.20;99.90
18103;DHT22;9178;51.120;6.192;2023-05-10T15:14:19;19.00;99.90
18103;DHT22;9178;51.120;6.192;2023-05-10T15:16:47;18.90;99.90
18103;DHT22;9178;51.120;6.192;2023-05-10T15:19:15;18.70;99.90
18103;DHT22;9178;51.120;6.192;2023-05-10T15:21:42;18.70;99.90
18103;DHT22;9178;51.120;6.192;2023-05-10T15:24:10;18.70;99.90
18103;DHT22;9178;51.120;6.192;2023-05-10T15:26:37;18.70;99.90
18103;DHT22;9178;51.120;6.192;2023-05-10T15:29:03;18.70;99.90
18103;DHT22;9178;51.120;6.192;2023-05-10T15:31:30;18.70;99.90
18103;DHT22;9178;51.120;6.192;2023-05-10T15:34:00;18.70;99.90
18103;DHT22;9178;51.120;6.192;2023-05-10T15:36:29;18.70;99.90
18103;DHT22;9178;51.120;6.192;2023-05-10T15:38:56;18.70;99.90
18103;DHT22;9178;51.120;6.192;2023-05-10T15:41:23;18.60;99.90
18103;DHT22;9178;51.120;6.192;2023-05-10T15:43:50;18.50;99.90
18103;DHT22;9178;51.120;6.192;2023-05-10T15:46:17;18.50;99.90
18103;DHT22;9178;51.120;6.192;2023-05-10T15:48:44;18.50;99.90
18103;DHT22;9178;51.120;6.192;2023-05-10T15:51:11;18.40;99.90
18103;DHT22;9178;51.120;6.192;2023-05-10T15:53:39;18.30;99.90
18103;DHT22;9178;51.120;6.192;2023-05-10T15:56:07;18.30;99.90
18103;DHT22;9178;51.120;6.192;2023-05-10T15:58:39;18.20;99.90
18103;DHT22;9178;51.120;6.192;2023-05-10T16:01:06;18.10;99.90
18103;DHT22;9178;51.120;6.192;2023-05-10T16:03:33;18.10;99.90
18103;DHT22;9178;51.120;6.192;2023-05-10T16:06:00;18.00;99.90
18103;DHT22;9178;51.120;6.192;2023-05-10T16:08:27;17.90;99.90
18103;DHT22;9178;51.120;6.192;2023-05-10T16:10:56;17.90;99.90